FW2768 Weather Reports


Display with metric or nautical units.
time (UTC)temp
F
wind
direction
speed
MPH
gust
MPH
rain 1hr
in
rain 24hr
in
rain mn
in
humidity
%
barometer
mb
20200601000005 58 168 0.0 3.0 0.00 0.00 0.00 78 1015.9
20200531231505 61 80 0.0 3.0 0.00 0.00 0.00 74 1016.0
20200531224506 61 63 0.0 2.0 0.00 0.00 0.00 74 1015.7
20200531223004 61 63 0.0 3.0 0.00 0.00 0.00 73 1015.6
20200531213012 63 181 0.0 0.0 0.00 0.00 0.00 66 1015.3
20200531211519 63 181 0.0 0.0 0.00 0.00 0.00 65 1015.2
20200531210006 64 181 0.0 0.0 0.00 0.00 0.00 64 1014.9
20200531203006 65 181 0.0 2.0 0.00 0.00 0.00 61 1014.7
20200531201506 66 331 0.0 2.0 0.00 0.00 0.00 60 1014.6
20200531200006 66 321 0.0 2.0 0.00 0.00 0.00 60 1014.3
20200531190004 68 228 2.0 5.0 0.00 0.00 0.00 56 1013.5
20200531180017 71 267 2.0 6.0 0.00 0.00 0.00 54 1013.2
20200531174507 72 276 1.0 7.0 0.00 0.00 0.00 54 1013.2
20200531171505 73 268 3.0 7.0 0.00 0.00 0.00 50 1013.1
20200531160007 74 309 3.0 8.0 0.00 0.00 0.00 46 1013.2
20200531154522 74 293 3.0 7.0 0.00 0.00 0.00 47 1013.4
20200531153006 73 360 2.0 6.0 0.00 0.00 0.00 46 1013.4
20200531150006 74 353 0.0 6.0 0.00 0.00 0.00 45 1013.6
20200531144504 73 15 2.0 6.0 0.00 0.00 0.00 45 1013.6
20200531141515 72 323 3.0 7.0 0.00 0.00 0.00 46 1013.8
20200531134512 72 333 2.0 6.0 0.00 0.00 0.00 46 1014.0
20200531133005 73 1 1.0 5.0 0.00 0.00 0.00 45 1014.0
20200531130005 73 280 1.0 7.0 0.00 0.00 0.00 46 1014.0
20200531124517 75 212 2.0 5.0 0.00 0.00 0.00 41 1014.0
20200531123006 75 173 3.0 7.0 0.00 0.00 0.00 41 1014.2
20200531120013 72 43 3.0 7.0 0.00 0.00 0.00 41 1014.5
20200531110009 70 146 1.0 6.0 0.00 0.00 0.00 46 1015.0
20200531103022 69 202 2.0 5.0 0.00 0.00 0.00 51 1015.3
20200531100006 67 84 1.0 4.0 0.00 0.00 0.00 56 1015.4
20200531090006 63 160 0.0 3.0 0.00 0.00 0.00 69 1015.8
20200531073002 59 224 0.0 2.0 0.00 0.00 0.00 78 1015.8
20200531070016 59 186 0.0 1.0 0.00 0.00 0.00 78 1015.8
20200531064516 58 183 0.0 2.0 0.00 0.00 0.00 77 1015.7
20200531061505 58 225 0.0 0.0 0.00 0.00 0.00 77 1015.6
20200531060006 58 165 0.0 0.0 0.00 0.00 0.00 77 1015.5
20200531054512 57 203 0.0 0.0 0.00 0.00 0.00 76 1015.5
20200531051515 55 180 0.0 0.0 0.00 0.00 0.00 82 1015.5
20200531050004 54 234 0.0 0.0 0.00 0.00 0.00 84 1015.4